ADDS METAR Data INFO
IDs: Format: Raw Decoded Include TAF

Data at: 1015 UTC 14 Dec 2017

KPDK 140953Z AUTO 25003KT 10SM CLR 02/M04 A2983 RMK AO2 SLP112 T00171039
KPDK 140853Z AUTO 25004KT 10SM CLR 02/M04 A2984 RMK AO2 SLP112 T00221044 57004
KPDK 140753Z AUTO 25008KT 10SM CLR 03/M04 A2984 RMK AO2 SLP114 T00331039
KPDK 140653Z AUTO 22005KT 10SM CLR 01/M05 A2984 RMK AO2 SLP115 T00111050
KPDK 140553Z AUTO 25005KT 10SM CLR 03/M06 A2985 RMK AO2 SLP118 T00331056 10067 20033 58002
KPDK 140453Z AUTO 27008KT 10SM CLR 04/M06 A2986 RMK AO2 SLP123 T00441061 400891033
KPDK 140353Z 24008KT 10SM CLR 04/M07 A2985 RMK AO2 SLP120 T00441067
KPDK 140253Z 25008KT 10SM CLR 05/M07 A2985 RMK AO2 SLP122 T00501072 55005
KPDK 140153Z 23008KT 10SM CLR 06/M08 A2985 RMK AO2 SLP121 T00561078
KPDK 140053Z 22009KT 10SM CLR 06/M08 A2985 RMK AO2 SLP124 T00611083
KPDK 132353Z 21008KT 10SM CLR 05/M09 A2987 RMK AO2 SLP130 T00501089 10089 20039 56013
KPDK 132253Z 23006KT 10SM CLR 06/M10 A2989 RMK AO2 SLP135 T00611100
KPDK 132153Z 21012KT 10SM CLR 08/M11 A2988 RMK AO2 SLP131 T00781111
KPDK 132053Z 20013KT 10SM CLR 08/M12 A2991 RMK AO2 SLP140 T00831117 56029
KPDK 131953Z 21010KT 10SM CLR 08/M12 A2992 RMK AO2 SLP144 T00831117
KPDK 131853Z 23006KT 10SM CLR 07/M12 A2996 RMK AO2 SLP157 T00721122
KPDK 131753Z 22008KT 10SM CLR 06/M12 A2999 RMK AO2 SLP170 T00561122 10061 21033 58024
KPDK 131653Z 25008KT 10SM CLR 04/M13 A3004 RMK AO2 SLP186 T00391133
KPDK 131553Z 25005KT 10SM CLR 02/M14 A3006 RMK AO2 SLP195 T00221139
KPDK 131453Z 28005KT 10SM CLR 00/M13 A3007 RMK AO2 SLP198 T00001133 53011
KPDK 131353Z VRB05KT 10SM CLR M01/M13 A3005 RMK AO2 SLP194 T10111128
KPDK 131253Z 30006KT 10SM CLR M03/M13 A3004 RMK AO2 SLP190 T10281128
KPDK 131153Z 29005KT 10SM CLR M03/M13 A3003 RMK AO2 SLP186 T10281128 10000 21028 53004
KPDK 131053Z AUTO 28008KT 10SM CLR M03/M13 A3002 RMK AO2 SLP182 T10281128
KPDK 130953Z AUTO 29009KT 10SM CLR M02/M13 A3002 RMK AO2 SLP179 T10221128
KPDK 130853Z AUTO 32009KT 10SM CLR M02/M12 A3002 RMK AO2 SLP179 T10171122 51007
KPDK 130753Z AUTO 32011G19KT 10SM CLR M01/M12 A3002 RMK AO2 SLP178 T10111122
KPDK 130653Z AUTO 31012G20KT 10SM CLR M01/M11 A3001 RMK AO2 SLP174 T10061111
KPDK 130553Z AUTO 30013KT 10SM CLR 00/M10 A3000 RMK AO2 SLP171 T00001100 10056 20000 50009
KPDK 130453Z AUTO 31017G27KT 10SM CLR 01/M09 A3000 RMK AO2 PK WND 30027/0450 SLP170 T00061094 400890006
KPDK 130353Z AUTO 31015G24KT 10SM CLR 02/M08 A2998 RMK AO2 PK WND 33028/0312 SLP161 T00171078
KPDK 130253Z 32013KT 10SM CLR 02/M06 A2997 RMK AO2 SLP159 T00221061 53011
KPDK 130153Z 30010KT 10SM CLR 03/M05 A2996 RMK AO2 SLP154 T00331050
KPDK 130053Z 31009G18KT 10SM CLR 04/M05 A2995 RMK AO2 SLP154 T00441050
KPDK 122353Z 31014G20KT 10SM CLR 06/M05 A2994 RMK AO2 SLP149 T00561050 10089 20056 53010
KPDK 122253Z 30009KT 10SM CLR 06/M04 A2992 RMK AO2 SLP142 T00611039